| time (UTC) | temp C | wind direction | speed KPH | gust KPH | rain 1hr cm | rain 24hr cm | rain mn cm | humidity % | barometer mb |
| 20260506164205 | 7 | 247 | 3.2 | 9.7 | 0.08 | 0.79 | 0.64 | 91 | 1008.3 |
| 20260506163705 | 7 | 221 | 3.2 | 11.3 | 0.10 | 0.79 | 0.64 | 91 | 1008.3 |
| 20260506162705 | 7 | 247 | 3.2 | 11.3 | 0.08 | 0.79 | 0.61 | 91 | 1008.3 |
| 20260506162216 | 7 | 228 | 3.2 | 6.4 | 0.10 | 0.79 | 0.61 | 91 | 1008.4 |
| 20260506161706 | 7 | 236 | 3.2 | 6.4 | 0.10 | 0.79 | 0.61 | 91 | 1008.3 |
| 20260506160705 | 7 | 249 | 3.2 | 11.3 | 0.10 | 0.76 | 0.61 | 91 | 1008.3 |
| 20260506160226 | 7 | 248 | 3.2 | 11.3 | 0.10 | 0.76 | 0.61 | 90 | 1008.3 |
| 20260506155705 | 7 | 230 | 3.2 | 6.4 | 0.08 | 0.74 | 0.58 | 90 | 1008.3 |
| 20260506155205 | 7 | 287 | 3.2 | 6.4 | 0.10 | 0.74 | 0.58 | 90 | 1008.4 |
| 20260506154706 | 7 | 263 | 3.2 | 6.4 | 0.08 | 0.71 | 0.56 | 90 | 1008.3 |
| 20260506154205 | 8 | 300 | 3.2 | 6.4 | 0.08 | 0.71 | 0.56 | 90 | 1008.3 |
| 20260506153704 | 8 | 262 | 3.2 | 6.4 | 0.08 | 0.71 | 0.53 | 89 | 1008.3 |
| 20260506153205 | 8 | 248 | 3.2 | 4.8 | 0.08 | 0.71 | 0.53 | 90 | 1008.3 |
| 20260506152705 | 8 | 283 | 1.6 | 4.8 | 0.08 | 0.71 | 0.53 | 90 | 1008.3 |
| 20260506152205 | 8 | 280 | 1.6 | 4.8 | 0.05 | 0.69 | 0.51 | 90 | 1008.2 |
| 20260506151705 | 8 | 299 | 1.6 | 4.8 | 0.05 | 0.69 | 0.51 | 90 | 1008.2 |
| 20260506151205 | 8 | 229 | 1.6 | 12.9 | 0.05 | 0.71 | 0.51 | 90 | 1008.2 |
| 20260506150705 | 8 | 307 | 3.2 | 14.5 | 0.05 | 0.76 | 0.51 | 90 | 1008.1 |
| 20260506150205 | 8 | 198 | 4.8 | 14.5 | 0.05 | 0.86 | 0.51 | 88 | 1008.2 |
| 20260506145705 | 8 | 288 | 4.8 | 14.5 | 0.05 | 0.86 | 0.51 | 88 | 1008.1 |
| 20260506145205 | 8 | 255 | 3.2 | 8.0 | 0.05 | 0.84 | 0.48 | 89 | 1008.1 |
| 20260506143205 | 8 | 256 | 4.8 | 8.0 | 0.03 | 0.81 | 0.46 | 88 | 1008.0 |
| 20260506142705 | 8 | 240 | 3.2 | 6.4 | 0.03 | 0.81 | 0.46 | 90 | 1008.0 |
| 20260506141705 | 8 | 269 | 3.2 | 8.0 | 0.05 | 0.81 | 0.46 | 89 | 1007.9 |
| 20260506141205 | 8 | 274 | 3.2 | 6.4 | 0.05 | 0.81 | 0.46 | 89 | 1007.9 |
| 20260506140205 | 8 | 274 | 1.6 | 9.7 | 0.03 | 0.79 | 0.43 | 90 | 1007.8 |
| 20260506135705 | 8 | 298 | 1.6 | 9.7 | 0.03 | 0.79 | 0.43 | 89 | 1007.8 |
| 20260506134705 | 8 | 207 | 3.2 | 16.1 | 0.03 | 0.79 | 0.43 | 89 | 1007.8 |
| 20260506134205 | 8 | 248 | 4.8 | 16.1 | 0.03 | 0.79 | 0.43 | 89 | 1007.8 |
| 20260506133705 | 8 | 199 | 6.4 | 20.9 | 0.03 | 0.79 | 0.43 | 89 | 1007.8 |
| 20260506133205 | 8 | 200 | 8.0 | 20.9 | 0.03 | 0.79 | 0.43 | 88 | 1007.9 |
| 20260506132205 | 9 | 225 | 8.0 | 17.7 | 0.03 | 0.79 | 0.43 | 89 | 1007.8 |
| 20260506131705 | 10 | 219 | 4.8 | 12.9 | 0.00 | 0.79 | 0.43 | 91 | 1007.7 |
| 20260506130705 | 10 | 312 | 6.4 | 14.5 | 0.03 | 0.79 | 0.43 | 90 | 1007.5 |
| 20260506130205 | 10 | 252 | 4.8 | 14.5 | 0.03 | 0.79 | 0.43 | 91 | 1007.5 |
| 20260506123705 | 10 | 231 | 3.2 | 6.4 | 0.05 | 0.79 | 0.43 | 91 | 1007.1 |
| 20260506123205 | 10 | 243 | 3.2 | 8.0 | 0.05 | 0.79 | 0.43 | 91 | 1007.0 |
| 20260506122705 | 10 | 248 | 3.2 | 11.3 | 0.05 | 0.79 | 0.43 | 92 | 1007.1 |
| 20260506122205 | 10 | 220 | 4.8 | 11.3 | 0.05 | 0.79 | 0.43 | 92 | 1007.1 |
| 20260506121705 | 10 | 190 | 4.8 | 11.3 | 0.05 | 0.79 | 0.43 | 91 | 1007.0 |
| 20260506121205 | 10 | 188 | 3.2 | 11.3 | 0.05 | 0.79 | 0.43 | 92 | 1007.0 |
| 20260506115205 | 10 | 273 | 4.8 | 8.0 | 0.05 | 0.76 | 0.41 | 92 | 1006.8 |
| 20260506114705 | 10 | 321 | 3.2 | 8.0 | 0.08 | 0.76 | 0.41 | 94 | 1006.9 |
| 20260506114205 | 10 | 279 | 3.2 | 8.0 | 0.05 | 0.74 | 0.38 | 93 | 1006.8 |
| 20260506113705 | 10 | 271 | 3.2 | 8.0 | 0.05 | 0.71 | 0.36 | 93 | 1006.8 |
| 20260506113205 | 10 | 272 | 3.2 | 6.4 | 0.05 | 0.71 | 0.36 | 93 | 1006.8 |
| 20260506112705 | 10 | 293 | 1.6 | 9.7 | 0.18 | 0.71 | 0.36 | 93 | 1006.8 |
| 20260506112205 | 10 | 279 | 3.2 | 9.7 | 0.33 | 0.71 | 0.36 | 93 | 1006.7 |
| 20260506111705 | 10 | 295 | 3.2 | 11.3 | 0.36 | 0.71 | 0.36 | 93 | 1006.8 |
| 20260506111205 | 10 | 266 | 4.8 | 11.3 | 0.36 | 0.71 | 0.36 | 93 | 1006.8 |
| 20260506110705 | 10 | 331 | 6.4 | 11.3 | 0.36 | 0.71 | 0.36 | 93 | 1006.8 |
| 20260506110206 | 10 | 262 | 6.4 | 11.3 | 0.36 | 0.71 | 0.36 | 92 | 1006.9 |
| 20260506105705 | 10 | 296 | 4.8 | 12.9 | 0.33 | 0.71 | 0.33 | 92 | 1006.8 |
| 20260506105205 | 10 | 282 | 6.4 | 12.9 | 0.33 | 0.69 | 0.33 | 92 | 1006.9 |
| 20260506104706 | 10 | 297 | 6.4 | 12.9 | 0.33 | 0.69 | 0.33 | 92 | 1006.8 |
| 20260506103705 | 10 | 313 | 3.2 | 11.3 | 0.33 | 0.69 | 0.33 | 91 | 1006.9 |
| 20260506103205 | 11 | 294 | 3.2 | 11.3 | 0.28 | 0.64 | 0.28 | 88 | 1006.8 |
| 20260506102705 | 11 | 234 | 4.8 | 11.3 | 0.15 | 0.51 | 0.15 | 88 | 1006.8 |
| 20260506102205 | 11 | 244 | 4.8 | 11.3 | 0.00 | 0.36 | 0.00 | 87 | 1006.8 |
| 20260506101705 | 12 | 236 | 4.8 | 11.3 | 0.00 | 0.36 | 0.00 | 86 | 1006.7 |
| 20260506101205 | 12 | 264 | 6.4 | 11.3 | 0.00 | 0.36 | 0.00 | 84 | 1006.7 |
| 20260506100705 | 13 | 354 | 4.8 | 11.3 | 0.00 | 0.36 | 0.00 | 81 | 1006.6 |
| 20260506100235 | 13 | 311 | 1.6 | 4.8 | 0.00 | 0.36 | 0.00 | 77 | 1006.6 |
| 20260506095705 | 13 | 180 | 1.6 | 4.8 | 0.00 | 0.36 | 0.00 | 77 | 1006.6 |
| 20260506094706 | 13 | 167 | 0.0 | 3.2 | 0.00 | 0.36 | 0.00 | 77 | 1006.6 |
| 20260506094205 | 13 | 134 | 0.0 | 1.6 | 0.00 | 0.36 | 0.00 | 77 | 1006.6 |
| 20260506093705 | 13 | 134 | 0.0 | 0.0 | 0.00 | 0.36 | 0.00 | 74 | 1006.5 |
| 20260506092705 | 13 | 134 | 0.0 | 1.6 | 0.00 | 0.36 | 0.00 | 73 | 1006.6 |
| 20260506092205 | 13 | 134 | 0.0 | 1.6 | 0.00 | 0.36 | 0.00 | 73 | 1006.6 |
| 20260506091705 | 13 | 134 | 0.0 | 1.6 | 0.00 | 0.36 | 0.00 | 75 | 1006.6 |
| 20260506091205 | 13 | 134 | 0.0 | 1.6 | 0.00 | 0.36 | 0.00 | 76 | 1006.7 |
| 20260506090705 | 13 | 134 | 0.0 | 3.2 | 0.00 | 0.36 | 0.00 | 74 | 1006.6 |
| 20260506090205 | 13 | 147 | 0.0 | 3.2 | 0.00 | 0.36 | 0.00 | 73 | 1006.6 |
| 20260506085705 | 13 | 147 | 0.0 | 3.2 | 0.00 | 0.36 | 0.00 | 76 | 1006.6 |
| 20260506085205 | 13 | 133 | 0.0 | 3.2 | 0.00 | 0.36 | 0.00 | 78 | 1006.6 |
| 20260506084705 | 13 | 162 | 0.0 | 3.2 | 0.00 | 0.36 | 0.00 | 80 | 1006.6 |
| 20260506084205 | 12 | 180 | 1.6 | 3.2 | 0.00 | 0.36 | 0.00 | 80 | 1006.6 |
| 20260506083705 | 12 | 117 | 1.6 | 3.2 | 0.00 | 0.36 | 0.00 | 79 | 1006.5 |
| 20260506083205 | 12 | 189 | 0.0 | 4.8 | 0.00 | 0.36 | 0.00 | 82 | 1006.4 |
| 20260506082705 | 12 | 180 | 1.6 | 4.8 | 0.00 | 0.36 | 0.00 | 82 | 1006.3 |
| 20260506082205 | 12 | 180 | 1.6 | 4.8 | 0.00 | 0.36 | 0.00 | 83 | 1006.4 |
| 20260506081705 | 12 | 155 | 1.6 | 4.8 | 0.00 | 0.36 | 0.00 | 87 | 1006.3 |
| 20260506081205 | 11 | 176 | 0.0 | 3.2 | 0.00 | 0.36 | 0.00 | 87 | 1006.3 |
| 20260506080706 | 11 | 127 | 0.0 | 3.2 | 0.00 | 0.36 | 0.00 | 87 | 1006.4 |
| 20260506080205 | 11 | 95 | 0.0 | 3.2 | 0.00 | 0.36 | 0.00 | 88 | 1006.4 |
| 20260506073205 | 10 | 95 | 0.0 | 1.6 | 0.00 | 0.36 | 0.00 | 96 | 1006.6 |
| 20260506072705 | 9 | 95 | 0.0 | 1.6 | 0.00 | 0.36 | 0.00 | 97 | 1006.6 |
| 20260506072205 | 9 | 95 | 0.0 | 1.6 | 0.00 | 0.36 | 0.00 | 97 | 1006.6 |
| 20260506071705 | 9 | 67 | 0.0 | 0.0 | 0.00 | 0.36 | 0.00 | 97 | 1006.6 |
| 20260506071205 | 8 | 66 | 0.0 | 0.0 | 0.00 | 0.36 | 0.00 | 97 | 1006.6 |
| 20260506070705 | 8 | 66 | 0.0 | 0.0 | 0.00 | 0.36 | 0.00 | 97 | 1006.6 |
| 20260506070205 | 8 | 66 | 0.0 | 0.0 | 0.00 | 0.36 | 0.00 | 97 | 1006.6 |
| 20260506062205 | 7 | 1 | 0.0 | 0.0 | 0.00 | 0.36 | 0.00 | 98 | 1006.6 |
| 20260506061705 | 7 | 1 | 0.0 | 1.6 | 0.00 | 0.38 | 0.00 | 98 | 1006.6 |
| 20260506061205 | 7 | 1 | 0.0 | 1.6 | 0.00 | 0.38 | 0.00 | 98 | 1006.7 |
| 20260506060705 | 7 | 1 | 0.0 | 1.6 | 0.00 | 0.38 | 0.00 | 98 | 1006.8 |
| 20260506051205 | 6 | 46 | 0.0 | 3.2 | 0.00 | 0.38 | 0.00 | 97 | 1006.9 |
| 20260506050705 | 6 | 264 | 0.0 | 0.0 | 0.00 | 0.38 | 0.00 | 97 | 1006.8 |
| 20260506050205 | 6 | 264 | 0.0 | 0.0 | 0.00 | 0.38 | 0.00 | 97 | 1006.8 |
| 20260506044705 | 5 | 254 | 0.0 | 1.6 | 0.00 | 0.38 | 0.00 | 97 | 1006.9 |
| 20260506044205 | 5 | 254 | 0.0 | 1.6 | 0.00 | 0.38 | 0.00 | 97 | 1007.0 |
| 20260506043705 | 5 | 254 | 0.0 | 3.2 | 0.00 | 0.38 | 0.00 | 97 | 1007.0 |
| 20260506043206 | 5 | 254 | 0.0 | 3.2 | 0.00 | 0.38 | 0.00 | 97 | 1007.1 |
| 20260506042705 | 5 | 254 | 0.0 | 3.2 | 0.00 | 0.38 | 0.00 | 97 | 1007.1 |
| 20260506041705 | 5 | 254 | 0.0 | 1.6 | 0.00 | 0.38 | 0.00 | 97 | 1007.0 |
| 20260506041205 | 5 | 254 | 0.0 | 3.2 | 0.00 | 0.38 | 0.00 | 97 | 1007.1 |
| 20260506040705 | 5 | 254 | 0.0 | 3.2 | 0.00 | 0.38 | 0.00 | 97 | 1007.2 |
| 20260506040205 | 5 | 254 | 0.0 | 3.2 | 0.00 | 0.38 | 0.00 | 97 | 1007.2 |
| 20260506035705 | 5 | 313 | 0.0 | 3.2 | 0.00 | 0.38 | 0.00 | 97 | 1007.2 |
| 20260506035204 | 5 | 253 | 0.0 | 3.2 | 0.00 | 0.38 | 0.00 | 97 | 1007.4 |
| 20260506034205 | 5 | 314 | 0.0 | 1.6 | 0.00 | 0.38 | 0.00 | 97 | 1007.5 |
| 20260506033704 | 5 | 314 | 0.0 | 1.6 | 0.00 | 0.38 | 0.00 | 97 | 1007.5 |
| 20260506033205 | 5 | 314 | 0.0 | 0.0 | 0.00 | 0.38 | 0.00 | 97 | 1007.5 |
| 20260506032205 | 5 | 314 | 0.0 | 0.0 | 0.00 | 0.38 | 0.00 | 96 | 1007.5 |
| 20260506031705 | 5 | 314 | 0.0 | 3.2 | 0.00 | 0.38 | 0.00 | 97 | 1007.4 |
| 20260506031205 | 5 | 314 | 0.0 | 3.2 | 0.00 | 0.38 | 0.00 | 97 | 1007.4 |
| 20260506030205 | 5 | 314 | 0.0 | 3.2 | 0.00 | 0.38 | 0.00 | 97 | 1007.5 |
| 20260506025705 | 5 | 314 | 0.0 | 3.2 | 0.00 | 0.38 | 0.00 | 97 | 1007.6 |
| 20260506025206 | 5 | 314 | 0.0 | 3.2 | 0.00 | 0.38 | 0.00 | 97 | 1007.8 |
| 20260506024705 | 5 | 314 | 0.0 | 1.6 | 0.00 | 0.38 | 0.00 | 97 | 1007.8 |
| 20260506024205 | 5 | 314 | 0.0 | 1.6 | 0.00 | 0.38 | 0.00 | 97 | 1007.8 |
| 20260506023726 | 5 | 314 | 0.0 | 1.6 | 0.00 | 0.38 | 0.00 | 97 | 1007.8 |
| 20260506023205 | 5 | 314 | 0.0 | 3.2 | 0.00 | 0.38 | 0.00 | 97 | 1007.9 |
| 20260506022206 | 5 | 314 | 0.0 | 3.2 | 0.00 | 0.38 | 0.00 | 96 | 1008.1 |
| 20260506021705 | 6 | 314 | 1.6 | 3.2 | 0.00 | 0.38 | 0.00 | 96 | 1008.1 |
| 20260506021205 | 6 | 314 | 0.0 | 3.2 | 0.00 | 0.38 | 0.00 | 97 | 1008.1 |
| 20260506020705 | 6 | 314 | 0.0 | 0.0 | 0.00 | 0.38 | 0.00 | 97 | 1008.1 |
| 20260506020205 | 6 | 314 | 0.0 | 0.0 | 0.00 | 0.38 | 0.00 | 97 | 1008.0 |
| 20260506015705 | 6 | 314 | 0.0 | 3.2 | 0.00 | 0.38 | 0.00 | 97 | 1008.1 |
| 20260506015205 | 6 | 314 | 0.0 | 3.2 | 0.00 | 0.38 | 0.00 | 97 | 1008.1 |
| 20260506014706 | 6 | 314 | 0.0 | 1.6 | 0.00 | 0.38 | 0.00 | 97 | 1008.2 |
| 20260506013705 | 6 | 314 | 0.0 | 3.2 | 0.00 | 0.38 | 0.00 | 97 | 1008.2 |
| 20260506013205 | 6 | 314 | 0.0 | 3.2 | 0.00 | 0.38 | 0.00 | 97 | 1008.3 |
| 20260506012705 | 6 | 314 | 0.0 | 4.8 | 0.00 | 0.38 | 0.00 | 97 | 1008.4 |
| 20260506012205 | 6 | 314 | 1.6 | 4.8 | 0.00 | 0.38 | 0.00 | 97 | 1008.4 |
| 20260506011705 | 6 | 314 | 1.6 | 4.8 | 0.00 | 0.38 | 0.00 | 97 | 1008.6 |
| 20260506011205 | 6 | 314 | 0.0 | 3.2 | 0.00 | 0.38 | 0.00 | 97 | 1008.6 |
| 20260506010706 | 6 | 306 | 0.0 | 1.6 | 0.00 | 0.38 | 0.00 | 97 | 1008.9 |
| 20260506010205 | 6 | 306 | 0.0 | 3.2 | 0.00 | 0.38 | 0.00 | 97 | 1008.8 |
| 20260506005706 | 6 | 306 | 0.0 | 3.2 | 0.00 | 0.38 | 0.00 | 97 | 1008.4 |
| 20260506005206 | 6 | 306 | 0.0 | 3.2 | 0.00 | 0.38 | 0.00 | 97 | 1008.6 |
| 20260506004705 | 6 | 306 | 0.0 | 0.0 | 0.00 | 0.38 | 0.00 | 97 | 1008.7 |
| 20260506004205 | 5 | 306 | 0.0 | 0.0 | 0.00 | 0.38 | 0.00 | 96 | 1008.8 |
| 20260506003705 | 5 | 306 | 0.0 | 0.0 | 0.00 | 0.38 | 0.00 | 96 | 1008.7 |
| 20260506002705 | 5 | 306 | 0.0 | 0.0 | 0.00 | 0.38 | 0.00 | 96 | 1008.8 |
| 20260506002206 | 5 | 306 | 0.0 | 0.0 | 0.00 | 0.38 | 0.00 | 96 | 1008.7 |
| 20260506001705 | 5 | 306 | 0.0 | 0.0 | 0.00 | 0.38 | 0.00 | 96 | 1008.8 |
| 20260506000705 | 5 | 306 | 0.0 | 1.6 | 0.00 | 0.38 | 0.00 | 96 | 1009.0 |
| 20260506000205 | 6 | 306 | 0.0 | 1.6 | 0.00 | 0.38 | 0.00 | 96 | 1009.0 |
| 20260505235705 | 6 | 306 | 0.0 | 3.2 | 0.00 | 0.38 | 0.00 | 96 | 1009.0 |
| 20260505235204 | 6 | 306 | 0.0 | 3.2 | 0.00 | 0.38 | 0.00 | 96 | 1009.0 |
| 20260505234732 | 6 | 306 | 0.0 | 3.2 | 0.00 | 0.38 | 0.00 | 96 | 1009.1 |
| 20260505234205 | 6 | 306 | 0.0 | 0.0 | 0.00 | 0.38 | 0.00 | 96 | 1009.2 |
| 20260505233704 | 6 | 306 | 0.0 | 0.0 | 0.00 | 0.38 | 0.00 | 96 | 1009.2 |
| 20260505232722 | 6 | 306 | 0.0 | 0.0 | 0.00 | 0.38 | 0.00 | 95 | 1009.3 |
| 20260505231705 | 6 | 306 | 0.0 | 0.0 | 0.00 | 0.38 | 0.00 | 95 | 1009.3 |
| 20260505231205 | 6 | 306 | 0.0 | 0.0 | 0.00 | 0.38 | 0.00 | 95 | 1009.3 |
| 20260505230705 | 6 | 306 | 0.0 | 1.6 | 0.00 | 0.38 | 0.00 | 95 | 1009.4 |
| 20260505230205 | 6 | 306 | 0.0 | 3.2 | 0.00 | 0.38 | 0.00 | 95 | 1009.5 |
| 20260505225705 | 6 | 306 | 0.0 | 3.2 | 0.00 | 0.38 | 0.00 | 95 | 1009.5 |
| 20260505225205 | 6 | 306 | 0.0 | 3.2 | 0.00 | 0.38 | 0.00 | 95 | 1009.4 |
| 20260505224705 | 6 | 306 | 0.0 | 3.2 | 0.00 | 0.38 | 0.00 | 95 | 1009.4 |
| 20260505224205 | 6 | 306 | 0.0 | 1.6 | 0.00 | 0.38 | 0.00 | 95 | 1009.5 |
| 20260505223705 | 6 | 306 | 0.0 | 1.6 | 0.00 | 0.38 | 0.00 | 95 | 1009.5 |
| 20260505223205 | 6 | 306 | 0.0 | 1.6 | 0.00 | 0.38 | 0.00 | 95 | 1009.5 |
| 20260505222706 | 6 | 306 | 0.0 | 0.0 | 0.00 | 0.38 | 0.00 | 94 | 1009.4 |
| 20260505222205 | 6 | 306 | 0.0 | 0.0 | 0.00 | 0.38 | 0.00 | 94 | 1009.4 |
| 20260505221704 | 6 | 306 | 0.0 | 3.2 | 0.00 | 0.38 | 0.00 | 94 | 1009.3 |
| 20260505215705 | 7 | 274 | 0.0 | 6.4 | 0.00 | 0.38 | 0.38 | 94 | 1009.4 |
| 20260505215205 | 7 | 61 | 1.6 | 6.4 | 0.00 | 0.38 | 0.38 | 94 | 1009.4 |
| 20260505214717 | 7 | 41 | 1.6 | 4.8 | 0.00 | 0.38 | 0.38 | 94 | 1009.5 |
| 20260505214205 | 7 | 68 | 0.0 | 0.0 | 0.00 | 0.38 | 0.38 | 94 | 1009.5 |
| 20260505213205 | 7 | 143 | 0.0 | 1.6 | 0.03 | 0.38 | 0.38 | 94 | 1009.6 |
| 20260505212708 | 8 | 143 | 0.0 | 1.6 | 0.03 | 0.38 | 0.38 | 94 | 1009.6 |
| 20260505212205 | 8 | 143 | 0.0 | 1.6 | 0.03 | 0.38 | 0.38 | 94 | 1009.6 |
| 20260505211705 | 8 | 143 | 0.0 | 1.6 | 0.03 | 0.38 | 0.38 | 94 | 1009.6 |
| 20260505211205 | 8 | 205 | 0.0 | 6.4 | 0.03 | 0.38 | 0.38 | 94 | 1009.7 |
| 20260505210205 | 8 | 205 | 3.2 | 6.4 | 0.03 | 0.38 | 0.38 | 94 | 1009.6 |
| 20260505205205 | 8 | 259 | 1.6 | 6.4 | 0.03 | 0.38 | 0.38 | 94 | 1009.7 |
| 20260505204706 | 8 | 217 | 1.6 | 8.0 | 0.03 | 0.38 | 0.38 | 94 | 1009.6 |
| 20260505204205 | 8 | 218 | 1.6 | 8.0 | 0.00 | 0.36 | 0.36 | 94 | 1009.6 |
| 20260505203705 | 8 | 231 | 3.2 | 8.0 | 0.00 | 0.36 | 0.36 | 93 | 1009.6 |
| 20260505203205 | 8 | 250 | 3.2 | 8.0 | 0.00 | 0.36 | 0.36 | 93 | 1009.6 |
| 20260505202705 | 8 | 234 | 3.2 | 8.0 | 0.00 | 0.36 | 0.36 | 93 | 1009.5 |
| 20260505202205 | 8 | 239 | 1.6 | 9.7 | 0.00 | 0.36 | 0.36 | 93 | 1009.5 |
| 20260505201705 | 8 | 163 | 1.6 | 9.7 | 0.00 | 0.36 | 0.36 | 93 | 1009.5 |
| 20260505201205 | 8 | 158 | 1.6 | 9.7 | 0.00 | 0.36 | 0.36 | 93 | 1009.3 |
| 20260505200705 | 8 | 233 | 0.0 | 4.8 | 0.00 | 0.36 | 0.36 | 92 | 1009.2 |
| 20260505200205 | 8 | 276 | 1.6 | 4.8 | 0.00 | 0.36 | 0.36 | 92 | 1009.1 |
| 20260505195205 | 9 | 223 | 0.0 | 4.8 | 0.00 | 0.36 | 0.36 | 92 | 1009.1 |
| 20260505194705 | 9 | 223 | 1.6 | 6.4 | 0.00 | 0.36 | 0.36 | 92 | 1009.0 |
| 20260505194205 | 9 | 223 | 1.6 | 6.4 | 0.00 | 0.36 | 0.36 | 91 | 1009.1 |
| 20260505193205 | 9 | 209 | 1.6 | 4.8 | 0.05 | 0.36 | 0.36 | 91 | 1009.1 |
| 20260505192705 | 9 | 231 | 1.6 | 4.8 | 0.05 | 0.36 | 0.36 | 91 | 1009.1 |
| 20260505192205 | 9 | 228 | 1.6 | 4.8 | 0.05 | 0.36 | 0.36 | 91 | 1009.1 |
| 20260505191705 | 9 | 227 | 1.6 | 4.8 | 0.08 | 0.36 | 0.36 | 91 | 1008.9 |
| 20260505190705 | 10 | 224 | 1.6 | 9.7 | 0.15 | 0.36 | 0.36 | 91 | 1008.8 |
| 20260505185705 | 10 | 220 | 3.2 | 9.7 | 0.15 | 0.36 | 0.36 | 91 | 1008.8 |
| 20260505185205 | 10 | 253 | 3.2 | 9.7 | 0.15 | 0.36 | 0.36 | 91 | 1008.8 |
| 20260505184706 | 10 | 202 | 3.2 | 8.0 | 0.15 | 0.36 | 0.36 | 91 | 1008.9 |
| 20260505184205 | 10 | 179 | 3.2 | 11.3 | 0.13 | 0.33 | 0.33 | 90 | 1008.8 |
| 20260505183705 | 10 | 188 | 3.2 | 11.3 | 0.10 | 0.33 | 0.33 | 89 | 1009.0 |
| 20260505183205 | 10 | 195 | 4.8 | 11.3 | 0.10 | 0.33 | 0.33 | 89 | 1009.2 |
| 20260505182706 | 11 | 209 | 4.8 | 16.1 | 0.08 | 0.30 | 0.30 | 88 | 1009.2 |
| 20260505181205 | 11 | 237 | 6.4 | 12.9 | 0.00 | 0.23 | 0.23 | 86 | 1009.1 |
| 20260505180706 | 11 | 233 | 6.4 | 12.9 | 0.00 | 0.23 | 0.23 | 84 | 1008.8 |
| 20260505180205 | 11 | 222 | 6.4 | 12.9 | 0.00 | 0.23 | 0.23 | 83 | 1008.7 |
| 20260505175705 | 12 | 217 | 6.4 | 12.9 | 0.00 | 0.23 | 0.23 | 83 | 1008.7 |
| 20260505175205 | 12 | 272 | 6.4 | 16.1 | 0.00 | 0.23 | 0.23 | 83 | 1008.7 |
| 20260505174205 | 12 | 315 | 6.4 | 16.1 | 0.00 | 0.23 | 0.23 | 83 | 1008.7 |
| 20260505173705 | 12 | 269 | 4.8 | 11.3 | 0.00 | 0.23 | 0.23 | 82 | 1008.6 |
| 20260505173205 | 12 | 294 | 4.8 | 8.0 | 0.00 | 0.23 | 0.23 | 82 | 1008.6 |
| 20260505172705 | 12 | 298 | 4.8 | 9.7 | 0.00 | 0.23 | 0.23 | 82 | 1008.6 |
| 20260505172205 | 12 | 262 | 4.8 | 9.7 | 0.00 | 0.23 | 0.23 | 82 | 1008.6 |
| 20260505171705 | 12 | 291 | 4.8 | 9.7 | 0.00 | 0.23 | 0.23 | 81 | 1008.6 |
| 20260505171204 | 12 | 279 | 3.2 | 9.7 | 0.00 | 0.23 | 0.23 | 80 | 1008.4 |
| 20260505170705 | 13 | 248 | 4.8 | 12.9 | 0.00 | 0.23 | 0.23 | 82 | 1008.6 |
| 20260505170205 | 13 | 258 | 6.4 | 12.9 | 0.00 | 0.23 | 0.23 | 79 | 1008.4 |
| 20260505165205 | 13 | 224 | 1.6 | 8.0 | 0.00 | 0.23 | 0.23 | 82 | 1008.6 |
| 20260505164705 | 13 | 265 | 1.6 | 9.7 | 0.00 | 0.23 | 0.23 | 83 | 1008.4 |